sensor_id;sensor_type;location;lat;lon;timestamp;P1;durP1;ratioP1;P2;durP2;ratioP2
3207;SDS011;1616;52.394;9.756;2023-05-16T00:01:47;14.13;;;13.03;;
3207;SDS011;1616;52.394;9.756;2023-05-16T00:04:13;20.43;;;12.60;;
3207;SDS011;1616;52.394;9.756;2023-05-16T00:06:39;14.30;;;13.00;;
3207;SDS011;1616;52.394;9.756;2023-05-16T00:09:05;15.20;;;13.70;;
3207;SDS011;1616;52.394;9.756;2023-05-16T00:11:31;13.60;;;12.50;;
3207;SDS011;1616;52.394;9.756;2023-05-16T00:13:57;15.53;;;12.60;;
3207;SDS011;1616;52.394;9.756;2023-05-16T00:16:22;12.90;;;11.90;;
3207;SDS011;1616;52.394;9.756;2023-05-16T00:18:50;19.30;;;10.63;;
3207;SDS011;1616;52.394;9.756;2023-05-16T00:21:16;11.03;;;10.03;;
3207;SDS011;1616;52.394;9.756;2023-05-16T00:23:42;11.83;;;10.73;;
3207;SDS011;1616;52.394;9.756;2023-05-16T00:26:08;12.07;;;11.07;;
3207;SDS011;1616;52.394;9.756;2023-05-16T00:28:34;12.53;;;11.33;;
3207;SDS011;1616;52.394;9.756;2023-05-16T00:31:00;14.63;;;12.10;;
3207;SDS011;1616;52.394;9.756;2023-05-16T00:33:25;14.60;;;11.13;;
3207;SDS011;1616;52.394;9.756;2023-05-16T00:35:51;12.40;;;11.37;;
3207;SDS011;1616;52.394;9.756;2023-05-16T00:38:17;13.30;;;12.07;;
3207;SDS011;1616;52.394;9.756;2023-05-16T00:40:44;12.23;;;11.27;;
3207;SDS011;1616;52.394;9.756;2023-05-16T00:43:10;18.73;;;13.80;;
3207;SDS011;1616;52.394;9.756;2023-05-16T00:45:36;14.23;;;13.13;;
3207;SDS011;1616;52.394;9.756;2023-05-16T00:48:02;14.67;;;13.13;;
3207;SDS011;1616;52.394;9.756;2023-05-16T00:50:28;13.13;;;11.93;;
3207;SDS011;1616;52.394;9.756;2023-05-16T00:52:53;12.27;;;10.97;;
3207;SDS011;1616;52.394;9.756;2023-05-16T00:55:20;10.30;;;9.47;;
3207;SDS011;1616;52.394;9.756;2023-05-16T00:57:46;11.90;;;9.23;;
3207;SDS011;1616;52.394;9.756;2023-05-16T01:00:12;8.60;;;7.90;;
3207;SDS011;1616;52.394;9.756;2023-05-16T01:02:40;8.00;;;7.50;;
3207;SDS011;1616;52.394;9.756;2023-05-16T01:05:06;5.73;;;5.23;;
3207;SDS011;1616;52.394;9.756;2023-05-16T01:07:34;5.97;;;5.50;;
3207;SDS011;1616;52.394;9.756;2023-05-16T01:10:00;6.33;;;4.97;;
3207;SDS011;1616;52.394;9.756;2023-05-16T01:12:40;5.87;;;4.13;;
3207;SDS011;1616;52.394;9.756;2023-05-16T01:15:14;4.90;;;3.00;;
3207;SDS011;1616;52.394;9.756;2023-05-16T01:17:52;3.10;;;2.90;;
3207;SDS011;1616;52.394;9.756;2023-05-16T01:20:48;4.23;;;2.93;;
3207;SDS011;1616;52.394;9.756;2023-05-16T01:28:47;3.77;;;3.57;;
3207;SDS011;1616;52.394;9.756;2023-05-16T01:31:14;2.80;;;2.23;;
3207;SDS011;1616;52.394;9.756;2023-05-16T01:33:40;3.57;;;3.00;;
3207;SDS011;1616;52.394;9.756;2023-05-16T01:38:40;4.00;;;3.57;;
3207;SDS011;1616;52.394;9.756;2023-05-16T01:41:26;5.30;;;3.90;;
3207;SDS011;1616;52.394;9.756;2023-05-16T01:44:06;4.43;;;3.77;;
3207;SDS011;1616;52.394;9.756;2023-05-16T01:46:37;6.57;;;5.03;;
3207;SDS011;1616;52.394;9.756;2023-05-16T01:49:30;8.50;;;5.07;;
3207;SDS011;1616;52.394;9.756;2023-05-16T01:52:00;7.27;;;6.40;;
3207;SDS011;1616;52.394;9.756;2023-05-16T01:54:37;7.37;;;6.67;;
3207;SDS011;1616;52.394;9.756;2023-05-16T01:57:07;8.83;;;5.90;;
3207;SDS011;1616;52.394;9.756;2023-05-16T01:59:34;6.63;;;6.20;;
3207;SDS011;1616;52.394;9.756;2023-05-16T02:02:01;6.10;;;5.70;;
3207;SDS011;1616;52.394;9.756;2023-05-16T02:04:26;6.83;;;6.30;;
3207;SDS011;1616;52.394;9.756;2023-05-16T02:06:52;6.50;;;6.00;;
3207;SDS011;1616;52.394;9.756;2023-05-16T02:09:18;13.27;;;5.50;;
3207;SDS011;1616;52.394;9.756;2023-05-16T02:11:43;4.90;;;4.40;;
3207;SDS011;1616;52.394;9.756;2023-05-16T02:14:11;4.70;;;4.23;;
3207;SDS011;1616;52.394;9.756;2023-05-16T02:16:36;3.27;;;3.07;;
3207;SDS011;1616;52.394;9.756;2023-05-16T02:19:02;3.70;;;3.40;;
3207;SDS011;1616;52.394;9.756;2023-05-16T02:21:28;4.17;;;3.67;;
3207;SDS011;1616;52.394;9.756;2023-05-16T02:23:54;4.30;;;3.33;;
3207;SDS011;1616;52.394;9.756;2023-05-16T02:26:19;5.77;;;4.20;;
3207;SDS011;1616;52.394;9.756;2023-05-16T02:28:46;5.20;;;4.70;;
3207;SDS011;1616;52.394;9.756;2023-05-16T02:31:23;5.20;;;4.53;;
3207;SDS011;1616;52.394;9.756;2023-05-16T02:33:53;4.37;;;4.10;;
3207;SDS011;1616;52.394;9.756;2023-05-16T02:36:19;5.60;;;5.10;;
3207;SDS011;1616;52.394;9.756;2023-05-16T02:38:45;7.07;;;4.40;;
3207;SDS011;1616;52.394;9.756;2023-05-16T02:41:11;6.30;;;4.87;;
3207;SDS011;1616;52.394;9.756;2023-05-16T02:43:36;6.23;;;4.00;;
3207;SDS011;1616;52.394;9.756;2023-05-16T02:46:18;4.70;;;4.10;;
3207;SDS011;1616;52.394;9.756;2023-05-16T02:48:46;9.10;;;4.93;;
3207;SDS011;1616;52.394;9.756;2023-05-16T02:51:11;5.83;;;5.33;;
3207;SDS011;1616;52.394;9.756;2023-05-16T02:53:38;4.57;;;4.17;;
3207;SDS011;1616;52.394;9.756;2023-05-16T02:56:04;5.70;;;5.20;;
3207;SDS011;1616;52.394;9.756;2023-05-16T02:58:31;5.77;;;5.23;;
3207;SDS011;1616;52.394;9.756;2023-05-16T03:00:57;11.63;;;5.80;;
3207;SDS011;1616;52.394;9.756;2023-05-16T03:03:23;4.93;;;4.67;;
3207;SDS011;1616;52.394;9.756;2023-05-16T03:05:49;6.63;;;5.27;;
3207;SDS011;1616;52.394;9.756;2023-05-16T03:08:15;4.53;;;3.80;;
3207;SDS011;1616;52.394;9.756;2023-05-16T03:10:40;4.83;;;4.53;;
3207;SDS011;1616;52.394;9.756;2023-05-16T03:13:06;9.63;;;3.70;;
3207;SDS011;1616;52.394;9.756;2023-05-16T03:15:32;5.33;;;4.90;;
3207;SDS011;1616;52.394;9.756;2023-05-16T03:17:57;9.13;;;5.33;;
3207;SDS011;1616;52.394;9.756;2023-05-16T03:20:23;5.53;;;4.33;;
3207;SDS011;1616;52.394;9.756;2023-05-16T03:22:48;5.50;;;4.17;;
3207;SDS011;1616;52.394;9.756;2023-05-16T03:25:14;4.40;;;4.10;;
3207;SDS011;1616;52.394;9.756;2023-05-16T03:27:40;4.77;;;2.93;;
3207;SDS011;1616;52.394;9.756;2023-05-16T03:30:06;4.20;;;2.60;;
3207;SDS011;1616;52.394;9.756;2023-05-16T03:32:32;5.30;;;1.80;;
3207;SDS011;1616;52.394;9.756;2023-05-16T03:34:58;5.37;;;2.03;;
3207;SDS011;1616;52.394;9.756;2023-05-16T03:37:24;10.07;;;3.00;;
3207;SDS011;1616;52.394;9.756;2023-05-16T03:39:50;7.23;;;2.60;;
3207;SDS011;1616;52.394;9.756;2023-05-16T03:42:16;2.83;;;2.10;;
3207;SDS011;1616;52.394;9.756;2023-05-16T03:44:42;4.43;;;2.23;;
3207;SDS011;1616;52.394;9.756;2023-05-16T03:47:08;4.20;;;2.17;;
3207;SDS011;1616;52.394;9.756;2023-05-16T03:49:34;4.57;;;1.77;;
3207;SDS011;1616;52.394;9.756;2023-05-16T03:52:01;2.47;;;1.70;;
3207;SDS011;1616;52.394;9.756;2023-05-16T03:54:28;2.07;;;1.70;;
3207;SDS011;1616;52.394;9.756;2023-05-16T03:56:54;3.47;;;1.87;;
3207;SDS011;1616;52.394;9.756;2023-05-16T03:59:19;2.43;;;1.30;;
3207;SDS011;1616;52.394;9.756;2023-05-16T04:01:45;1.87;;;1.50;;
3207;SDS011;1616;52.394;9.756;2023-05-16T04:04:11;4.23;;;1.70;;
3207;SDS011;1616;52.394;9.756;2023-05-16T04:06:37;3.50;;;1.50;;
3207;SDS011;1616;52.394;9.756;2023-05-16T04:09:02;2.87;;;1.40;;
3207;SDS011;1616;52.394;9.756;2023-05-16T04:11:28;4.53;;;1.77;;
3207;SDS011;1616;52.394;9.756;2023-05-16T04:13:53;8.60;;;1.73;;
3207;SDS011;1616;52.394;9.756;2023-05-16T04:16:19;7.30;;;1.93;;
3207;SDS011;1616;52.394;9.756;2023-05-16T04:18:45;2.73;;;1.50;;
3207;SDS011;1616;52.394;9.756;2023-05-16T04:21:11;4.80;;;1.67;;
3207;SDS011;1616;52.394;9.756;2023-05-16T04:23:39;2.80;;;1.57;;
3207;SDS011;1616;52.394;9.756;2023-05-16T04:26:05;3.27;;;1.80;;
3207;SDS011;1616;52.394;9.756;2023-05-16T04:28:32;3.20;;;1.67;;
3207;SDS011;1616;52.394;9.756;2023-05-16T04:30:57;6.10;;;1.63;;
3207;SDS011;1616;52.394;9.756;2023-05-16T04:33:23;11.87;;;2.57;;
3207;SDS011;1616;52.394;9.756;2023-05-16T04:35:48;3.63;;;1.70;;
3207;SDS011;1616;52.394;9.756;2023-05-16T04:38:14;6.00;;;1.50;;
3207;SDS011;1616;52.394;9.756;2023-05-16T04:40:40;12.93;;;1.70;;
3207;SDS011;1616;52.394;9.756;2023-05-16T04:43:06;3.30;;;1.60;;
3207;SDS011;1616;52.394;9.756;2023-05-16T04:45:32;5.93;;;1.80;;
3207;SDS011;1616;52.394;9.756;2023-05-16T04:47:57;9.60;;;1.60;;
3207;SDS011;1616;52.394;9.756;2023-05-16T04:50:23;4.97;;;1.67;;
3207;SDS011;1616;52.394;9.756;2023-05-16T04:52:49;9.33;;;2.33;;
3207;SDS011;1616;52.394;9.756;2023-05-16T04:55:15;7.93;;;1.90;;
3207;SDS011;1616;52.394;9.756;2023-05-16T04:57:40;10.87;;;2.07;;
3207;SDS011;1616;52.394;9.756;2023-05-16T05:00:06;6.47;;;1.70;;
3207;SDS011;1616;52.394;9.756;2023-05-16T05:02:35;10.13;;;1.90;;
3207;SDS011;1616;52.394;9.756;2023-05-16T05:05:01;7.23;;;1.80;;
3207;SDS011;1616;52.394;9.756;2023-05-16T05:07:27;8.20;;;2.17;;
3207;SDS011;1616;52.394;9.756;2023-05-16T05:09:53;6.93;;;1.50;;
3207;SDS011;1616;52.394;9.756;2023-05-16T05:12:20;11.37;;;1.97;;
3207;SDS011;1616;52.394;9.756;2023-05-16T05:14:46;9.87;;;2.13;;
3207;SDS011;1616;52.394;9.756;2023-05-16T05:17:12;6.73;;;1.70;;
3207;SDS011;1616;52.394;9.756;2023-05-16T05:19:38;9.43;;;2.13;;
3207;SDS011;1616;52.394;9.756;2023-05-16T05:22:03;13.73;;;1.83;;
3207;SDS011;1616;52.394;9.756;2023-05-16T05:24:29;11.10;;;1.50;;
3207;SDS011;1616;52.394;9.756;2023-05-16T05:26:55;13.83;;;2.13;;
3207;SDS011;1616;52.394;9.756;2023-05-16T05:29:20;5.27;;;1.33;;
3207;SDS011;1616;52.394;9.756;2023-05-16T05:31:46;9.10;;;1.80;;
3207;SDS011;1616;52.394;9.756;2023-05-16T05:34:12;11.47;;;2.03;;
3207;SDS011;1616;52.394;9.756;2023-05-16T05:36:38;15.80;;;2.20;;
3207;SDS011;1616;52.394;9.756;2023-05-16T05:39:04;14.73;;;2.43;;
3207;SDS011;1616;52.394;9.756;2023-05-16T05:41:30;11.23;;;1.40;;
3207;SDS011;1616;52.394;9.756;2023-05-16T05:43:55;9.87;;;1.53;;
3207;SDS011;1616;52.394;9.756;2023-05-16T05:46:21;6.47;;;1.33;;
3207;SDS011;1616;52.394;9.756;2023-05-16T05:48:48;9.17;;;1.70;;
3207;SDS011;1616;52.394;9.756;2023-05-16T05:51:14;13.33;;;1.70;;
3207;SDS011;1616;52.394;9.756;2023-05-16T05:53:39;7.60;;;1.60;;
3207;SDS011;1616;52.394;9.756;2023-05-16T05:56:05;8.00;;;1.40;;
3207;SDS011;1616;52.394;9.756;2023-05-16T05:58:31;16.30;;;2.00;;
3207;SDS011;1616;52.394;9.756;2023-05-16T06:00:56;15.90;;;1.67;;
3207;SDS011;1616;52.394;9.756;2023-05-16T06:03:22;14.10;;;1.47;;
3207;SDS011;1616;52.394;9.756;2023-05-16T06:05:47;10.83;;;1.50;;
3207;SDS011;1616;52.394;9.756;2023-05-16T06:08:13;8.00;;;1.70;;
3207;SDS011;1616;52.394;9.756;2023-05-16T06:10:39;21.83;;;1.50;;
3207;SDS011;1616;52.394;9.756;2023-05-16T06:13:04;4.53;;;1.37;;
3207;SDS011;1616;52.394;9.756;2023-05-16T06:15:30;11.70;;;1.50;;
3207;SDS011;1616;52.394;9.756;2023-05-16T06:17:56;7.10;;;1.30;;
3207;SDS011;1616;52.394;9.756;2023-05-16T06:20:22;4.93;;;1.60;;
3207;SDS011;1616;52.394;9.756;2023-05-16T06:22:48;5.80;;;1.27;;
3207;SDS011;1616;52.394;9.756;2023-05-16T06:25:13;7.13;;;1.47;;
3207;SDS011;1616;52.394;9.756;2023-05-16T06:27:39;4.93;;;1.70;;
3207;SDS011;1616;52.394;9.756;2023-05-16T06:30:05;5.33;;;1.30;;
3207;SDS011;1616;52.394;9.756;2023-05-16T06:32:31;12.37;;;1.70;;
3207;SDS011;1616;52.394;9.756;2023-05-16T06:34:57;19.10;;;1.67;;
3207;SDS011;1616;52.394;9.756;2023-05-16T06:37:22;6.60;;;1.60;;
3207;SDS011;1616;52.394;9.756;2023-05-16T06:39:48;5.73;;;1.30;;
3207;SDS011;1616;52.394;9.756;2023-05-16T06:42:14;9.97;;;2.27;;
3207;SDS011;1616;52.394;9.756;2023-05-16T06:44:40;7.33;;;1.40;;
3207;SDS011;1616;52.394;9.756;2023-05-16T06:47:05;6.53;;;1.20;;
3207;SDS011;1616;52.394;9.756;2023-05-16T06:49:31;8.03;;;1.07;;
3207;SDS011;1616;52.394;9.756;2023-05-16T06:51:58;5.30;;;1.20;;
3207;SDS011;1616;52.394;9.756;2023-05-16T06:54:23;8.40;;;1.23;;
3207;SDS011;1616;52.394;9.756;2023-05-16T06:56:49;4.20;;;1.33;;
3207;SDS011;1616;52.394;9.756;2023-05-16T06:59:15;4.80;;;1.40;;
3207;SDS011;1616;52.394;9.756;2023-05-16T07:01:41;4.50;;;1.23;;
3207;SDS011;1616;52.394;9.756;2023-05-16T07:04:06;1.50;;;1.00;;
3207;SDS011;1616;52.394;9.756;2023-05-16T07:06:32;6.83;;;1.20;;
3207;SDS011;1616;52.394;9.756;2023-05-16T07:08:58;5.80;;;0.97;;
3207;SDS011;1616;52.394;9.756;2023-05-16T07:11:23;4.20;;;1.07;;
3207;SDS011;1616;52.394;9.756;2023-05-16T07:13:49;5.77;;;1.10;;
3207;SDS011;1616;52.394;9.756;2023-05-16T07:16:14;3.27;;;1.13;;
3207;SDS011;1616;52.394;9.756;2023-05-16T07:18:40;12.37;;;1.83;;
3207;SDS011;1616;52.394;9.756;2023-05-16T07:21:05;3.13;;;1.00;;
3207;SDS011;1616;52.394;9.756;2023-05-16T07:23:31;10.03;;;1.50;;
3207;SDS011;1616;52.394;9.756;2023-05-16T07:25:57;5.43;;;1.27;;
3207;SDS011;1616;52.394;9.756;2023-05-16T07:28:22;3.93;;;1.30;;
3207;SDS011;1616;52.394;9.756;2023-05-16T07:30:48;3.60;;;1.17;;
3207;SDS011;1616;52.394;9.756;2023-05-16T07:33:13;5.43;;;1.13;;
3207;SDS011;1616;52.394;9.756;2023-05-16T07:35:39;8.30;;;1.50;;
3207;SDS011;1616;52.394;9.756;2023-05-16T07:38:05;4.10;;;1.10;;
3207;SDS011;1616;52.394;9.756;2023-05-16T07:40:31;5.70;;;1.20;;
3207;SDS011;1616;52.394;9.756;2023-05-16T07:42:56;4.53;;;1.20;;
3207;SDS011;1616;52.394;9.756;2023-05-16T07:45:22;6.20;;;1.37;;
3207;SDS011;1616;52.394;9.756;2023-05-16T07:47:48;4.83;;;0.80;;
3207;SDS011;1616;52.394;9.756;2023-05-16T07:50:13;3.93;;;1.00;;
3207;SDS011;1616;52.394;9.756;2023-05-16T07:52:39;3.80;;;1.03;;
3207;SDS011;1616;52.394;9.756;2023-05-16T07:55:05;4.90;;;1.30;;
3207;SDS011;1616;52.394;9.756;2023-05-16T07:57:31;2.93;;;1.10;;
3207;SDS011;1616;52.394;9.756;2023-05-16T07:59:57;3.20;;;1.00;;
3207;SDS011;1616;52.394;9.756;2023-05-16T08:02:23;3.80;;;0.97;;
3207;SDS011;1616;52.394;9.756;2023-05-16T08:04:50;4.07;;;1.20;;
3207;SDS011;1616;52.394;9.756;2023-05-16T08:07:16;3.07;;;1.10;;
3207;SDS011;1616;52.394;9.756;2023-05-16T08:09:41;1.90;;;0.90;;
3207;SDS011;1616;52.394;9.756;2023-05-16T08:12:07;2.03;;;1.00;;
3207;SDS011;1616;52.394;9.756;2023-05-16T08:14:33;2.77;;;0.90;;
3207;SDS011;1616;52.394;9.756;2023-05-16T08:16:59;3.60;;;0.90;;
3207;SDS011;1616;52.394;9.756;2023-05-16T08:19:25;6.47;;;1.20;;
3207;SDS011;1616;52.394;9.756;2023-05-16T08:21:51;3.40;;;1.00;;
3207;SDS011;1616;52.394;9.756;2023-05-16T08:24:17;1.70;;;0.83;;
3207;SDS011;1616;52.394;9.756;2023-05-16T08:26:42;3.13;;;1.00;;
3207;SDS011;1616;52.394;9.756;2023-05-16T08:29:08;8.70;;;1.53;;
3207;SDS011;1616;52.394;9.756;2023-05-16T08:31:34;1.67;;;0.90;;
3207;SDS011;1616;52.394;9.756;2023-05-16T08:34:00;3.00;;;1.00;;
3207;SDS011;1616;52.394;9.756;2023-05-16T08:36:30;1.90;;;1.10;;
3207;SDS011;1616;52.394;9.756;2023-05-16T08:38:58;1.57;;;0.90;;
3207;SDS011;1616;52.394;9.756;2023-05-16T08:41:24;3.87;;;1.20;;
3207;SDS011;1616;52.394;9.756;2023-05-16T08:43:50;2.67;;;1.10;;
3207;SDS011;1616;52.394;9.756;2023-05-16T08:46:17;6.27;;;1.10;;
3207;SDS011;1616;52.394;9.756;2023-05-16T08:48:48;2.30;;;0.90;;
3207;SDS011;1616;52.394;9.756;2023-05-16T08:51:17;2.70;;;0.90;;
3207;SDS011;1616;52.394;9.756;2023-05-16T08:53:45;3.90;;;1.10;;
3207;SDS011;1616;52.394;9.756;2023-05-16T08:56:16;1.63;;;0.90;;
3207;SDS011;1616;52.394;9.756;2023-05-16T08:58:43;2.27;;;1.17;;
3207;SDS011;1616;52.394;9.756;2023-05-16T09:01:10;3.73;;;1.20;;
3207;SDS011;1616;52.394;9.756;2023-05-16T09:03:36;3.00;;;0.90;;
3207;SDS011;1616;52.394;9.756;2023-05-16T09:06:05;1.93;;;1.20;;
3207;SDS011;1616;52.394;9.756;2023-05-16T09:08:31;2.33;;;1.10;;
3207;SDS011;1616;52.394;9.756;2023-05-16T09:10:57;3.73;;;0.90;;
3207;SDS011;1616;52.394;9.756;2023-05-16T09:13:23;6.83;;;1.00;;
3207;SDS011;1616;52.394;9.756;2023-05-16T09:16:12;1.70;;;0.90;;
3207;SDS011;1616;52.394;9.756;2023-05-16T09:18:38;4.37;;;1.30;;
3207;SDS011;1616;52.394;9.756;2023-05-16T09:21:06;2.30;;;0.97;;
3207;SDS011;1616;52.394;9.756;2023-05-16T09:23:33;1.90;;;0.90;;
3207;SDS011;1616;52.394;9.756;2023-05-16T09:25:59;1.13;;;0.80;;
3207;SDS011;1616;52.394;9.756;2023-05-16T09:28:25;4.53;;;0.93;;
3207;SDS011;1616;52.394;9.756;2023-05-16T09:30:51;3.73;;;1.13;;
3207;SDS011;1616;52.394;9.756;2023-05-16T09:33:21;3.10;;;0.90;;
3207;SDS011;1616;52.394;9.756;2023-05-16T09:35:57;2.40;;;0.80;;
3207;SDS011;1616;52.394;9.756;2023-05-16T09:38:24;2.07;;;0.80;;
3207;SDS011;1616;52.394;9.756;2023-05-16T09:40:51;1.63;;;0.80;;
3207;SDS011;1616;52.394;9.756;2023-05-16T09:43:19;2.13;;;0.73;;
3207;SDS011;1616;52.394;9.756;2023-05-16T09:45:47;5.23;;;0.90;;
3207;SDS011;1616;52.394;9.756;2023-05-16T09:48:14;1.87;;;0.90;;
3207;SDS011;1616;52.394;9.756;2023-05-16T09:50:45;4.33;;;0.87;;
3207;SDS011;1616;52.394;9.756;2023-05-16T09:53:13;3.60;;;0.90;;
3207;SDS011;1616;52.394;9.756;2023-05-16T09:55:39;3.80;;;1.10;;
3207;SDS011;1616;52.394;9.756;2023-05-16T09:58:04;1.70;;;0.80;;
3207;SDS011;1616;52.394;9.756;2023-05-16T10:00:30;5.60;;;0.80;;
3207;SDS011;1616;52.394;9.756;2023-05-16T10:02:58;7.60;;;1.13;;
3207;SDS011;1616;52.394;9.756;2023-05-16T10:05:27;2.80;;;0.90;;
3207;SDS011;1616;52.394;9.756;2023-05-16T10:07:56;3.73;;;0.90;;
3207;SDS011;1616;52.394;9.756;2023-05-16T10:10:22;1.60;;;0.90;;
3207;SDS011;1616;52.394;9.756;2023-05-16T10:12:52;3.53;;;1.00;;
3207;SDS011;1616;52.394;9.756;2023-05-16T10:15:20;1.80;;;0.97;;
3207;SDS011;1616;52.394;9.756;2023-05-16T10:17:49;3.23;;;1.00;;
3207;SDS011;1616;52.394;9.756;2023-05-16T10:20:17;1.33;;;0.70;;
3207;SDS011;1616;52.394;9.756;2023-05-16T10:22:45;2.30;;;0.80;;
3207;SDS011;1616;52.394;9.756;2023-05-16T10:25:27;2.53;;;1.10;;
3207;SDS011;1616;52.394;9.756;2023-05-16T10:27:57;3.10;;;1.20;;
3207;SDS011;1616;52.394;9.756;2023-05-16T10:30:23;1.77;;;1.40;;
3207;SDS011;1616;52.394;9.756;2023-05-16T10:32:49;10.00;;;1.13;;
3207;SDS011;1616;52.394;9.756;2023-05-16T10:35:16;4.53;;;1.00;;
3207;SDS011;1616;52.394;9.756;2023-05-16T10:37:42;1.70;;;0.90;;
3207;SDS011;1616;52.394;9.756;2023-05-16T10:40:08;1.83;;;0.80;;
3207;SDS011;1616;52.394;9.756;2023-05-16T10:42:35;1.37;;;0.80;;
3207;SDS011;1616;52.394;9.756;2023-05-16T10:45:17;4.20;;;0.80;;
3207;SDS011;1616;52.394;9.756;2023-05-16T10:47:50;1.30;;;0.70;;
3207;SDS011;1616;52.394;9.756;2023-05-16T10:50:39;1.70;;;0.80;;
3207;SDS011;1616;52.394;9.756;2023-05-16T10:53:14;3.07;;;0.90;;
3207;SDS011;1616;52.394;9.756;2023-05-16T10:56:07;2.23;;;0.80;;
3207;SDS011;1616;52.394;9.756;2023-05-16T11:04:04;1.60;;;0.70;;
3207;SDS011;1616;52.394;9.756;2023-05-16T11:11:52;2.13;;;0.87;;
3207;SDS011;1616;52.394;9.756;2023-05-16T11:17:14;1.90;;;0.70;;
3207;SDS011;1616;52.394;9.756;2023-05-16T11:19:52;5.77;;;0.80;;
3207;SDS011;1616;52.394;9.756;2023-05-16T11:22:24;3.63;;;0.80;;
3207;SDS011;1616;52.394;9.756;2023-05-16T11:27:30;3.83;;;0.80;;
3207;SDS011;1616;52.394;9.756;2023-05-16T11:30:00;3.60;;;0.80;;
3207;SDS011;1616;52.394;9.756;2023-05-16T11:32:28;1.70;;;1.00;;
3207;SDS011;1616;52.394;9.756;2023-05-16T11:34:55;3.10;;;0.87;;
3207;SDS011;1616;52.394;9.756;2023-05-16T11:37:22;1.43;;;0.87;;
3207;SDS011;1616;52.394;9.756;2023-05-16T11:39:48;6.73;;;0.90;;
3207;SDS011;1616;52.394;9.756;2023-05-16T11:42:14;2.90;;;1.00;;
3207;SDS011;1616;52.394;9.756;2023-05-16T11:44:41;3.23;;;1.00;;
3207;SDS011;1616;52.394;9.756;2023-05-16T11:47:07;1.80;;;0.80;;
3207;SDS011;1616;52.394;9.756;2023-05-16T11:49:33;3.30;;;0.70;;
3207;SDS011;1616;52.394;9.756;2023-05-16T11:52:00;2.70;;;0.90;;
3207;SDS011;1616;52.394;9.756;2023-05-16T11:54:27;1.87;;;0.80;;
3207;SDS011;1616;52.394;9.756;2023-05-16T11:56:52;4.37;;;1.10;;
3207;SDS011;1616;52.394;9.756;2023-05-16T11:59:18;2.80;;;1.07;;
3207;SDS011;1616;52.394;9.756;2023-05-16T12:01:45;3.03;;;0.80;;
3207;SDS011;1616;52.394;9.756;2023-05-16T12:04:13;4.30;;;0.90;;
3207;SDS011;1616;52.394;9.756;2023-05-16T12:06:40;1.40;;;0.80;;
3207;SDS011;1616;52.394;9.756;2023-05-16T12:09:13;2.03;;;1.00;;
3207;SDS011;1616;52.394;9.756;2023-05-16T12:11:40;6.27;;;1.00;;
3207;SDS011;1616;52.394;9.756;2023-05-16T12:14:08;1.80;;;0.80;;
3207;SDS011;1616;52.394;9.756;2023-05-16T12:16:36;1.33;;;0.67;;
3207;SDS011;1616;52.394;9.756;2023-05-16T12:19:07;1.57;;;0.80;;
3207;SDS011;1616;52.394;9.756;2023-05-16T12:21:33;3.90;;;0.80;;
3207;SDS011;1616;52.394;9.756;2023-05-16T12:24:00;3.90;;;0.70;;
3207;SDS011;1616;52.394;9.756;2023-05-16T12:26:30;1.20;;;0.80;;
3207;SDS011;1616;52.394;9.756;2023-05-16T12:29:00;6.03;;;0.90;;
3207;SDS011;1616;52.394;9.756;2023-05-16T12:31:29;1.40;;;0.70;;
3207;SDS011;1616;52.394;9.756;2023-05-16T12:33:59;3.60;;;0.90;;
3207;SDS011;1616;52.394;9.756;2023-05-16T12:36:25;3.67;;;0.83;;
3207;SDS011;1616;52.394;9.756;2023-05-16T12:38:51;4.43;;;1.00;;
3207;SDS011;1616;52.394;9.756;2023-05-16T12:41:17;6.93;;;1.00;;
3207;SDS011;1616;52.394;9.756;2023-05-16T12:43:45;8.73;;;1.20;;
3207;SDS011;1616;52.394;9.756;2023-05-16T12:46:12;2.00;;;0.83;;
3207;SDS011;1616;52.394;9.756;2023-05-16T12:48:38;5.57;;;1.30;;
3207;SDS011;1616;52.394;9.756;2023-05-16T12:51:17;2.13;;;1.20;;
3207;SDS011;1616;52.394;9.756;2023-05-16T12:53:47;2.03;;;0.90;;
3207;SDS011;1616;52.394;9.756;2023-05-16T12:56:13;2.13;;;1.00;;
3207;SDS011;1616;52.394;9.756;2023-05-16T12:58:40;4.30;;;0.80;;
3207;SDS011;1616;52.394;9.756;2023-05-16T13:01:06;2.70;;;0.90;;
3207;SDS011;1616;52.394;9.756;2023-05-16T13:03:33;5.63;;;1.20;;
3207;SDS011;1616;52.394;9.756;2023-05-16T13:05:59;1.70;;;1.10;;
3207;SDS011;1616;52.394;9.756;2023-05-16T13:08:25;4.87;;;0.90;;
3207;SDS011;1616;52.394;9.756;2023-05-16T13:10:53;6.07;;;1.60;;
3207;SDS011;1616;52.394;9.756;2023-05-16T13:13:18;1.53;;;0.93;;
3207;SDS011;1616;52.394;9.756;2023-05-16T13:15:44;8.63;;;0.93;;
3207;SDS011;1616;52.394;9.756;2023-05-16T13:18:11;4.83;;;1.00;;
3207;SDS011;1616;52.394;9.756;2023-05-16T13:20:37;1.77;;;0.80;;
3207;SDS011;1616;52.394;9.756;2023-05-16T13:23:03;1.80;;;1.20;;
3207;SDS011;1616;52.394;9.756;2023-05-16T13:25:32;1.50;;;0.70;;
3207;SDS011;1616;52.394;9.756;2023-05-16T13:27:58;14.53;;;0.90;;
3207;SDS011;1616;52.394;9.756;2023-05-16T13:30:23;4.83;;;0.80;;
3207;SDS011;1616;52.394;9.756;2023-05-16T13:32:49;2.70;;;0.60;;
3207;SDS011;1616;52.394;9.756;2023-05-16T13:35:16;1.53;;;0.73;;
3207;SDS011;1616;52.394;9.756;2023-05-16T13:37:43;2.80;;;0.80;;
3207;SDS011;1616;52.394;9.756;2023-05-16T13:40:09;2.40;;;0.77;;
3207;SDS011;1616;52.394;9.756;2023-05-16T13:42:35;2.90;;;0.60;;
3207;SDS011;1616;52.394;9.756;2023-05-16T13:45:01;1.20;;;0.70;;
3207;SDS011;1616;52.394;9.756;2023-05-16T13:47:27;1.63;;;0.80;;
3207;SDS011;1616;52.394;9.756;2023-05-16T13:49:53;1.60;;;0.70;;
3207;SDS011;1616;52.394;9.756;2023-05-16T13:52:19;1.43;;;0.73;;
3207;SDS011;1616;52.394;9.756;2023-05-16T13:54:45;1.73;;;0.70;;
3207;SDS011;1616;52.394;9.756;2023-05-16T13:57:11;4.40;;;1.80;;
3207;SDS011;1616;52.394;9.756;2023-05-16T13:59:36;1.83;;;0.90;;
3207;SDS011;1616;52.394;9.756;2023-05-16T14:02:02;1.53;;;0.60;;
3207;SDS011;1616;52.394;9.756;2023-05-16T14:04:28;1.43;;;0.67;;
3207;SDS011;1616;52.394;9.756;2023-05-16T14:06:53;1.63;;;0.70;;
3207;SDS011;1616;52.394;9.756;2023-05-16T14:09:20;2.57;;;0.83;;
3207;SDS011;1616;52.394;9.756;2023-05-16T14:11:46;2.33;;;0.80;;
3207;SDS011;1616;52.394;9.756;2023-05-16T14:14:12;2.50;;;0.77;;
3207;SDS011;1616;52.394;9.756;2023-05-16T14:16:38;3.23;;;0.70;;
3207;SDS011;1616;52.394;9.756;2023-05-16T14:19:07;2.23;;;0.60;;
3207;SDS011;1616;52.394;9.756;2023-05-16T14:21:33;2.60;;;0.80;;
3207;SDS011;1616;52.394;9.756;2023-05-16T14:23:59;2.23;;;0.80;;
3207;SDS011;1616;52.394;9.756;2023-05-16T14:26:25;1.57;;;0.77;;
3207;SDS011;1616;52.394;9.756;2023-05-16T14:28:50;3.90;;;0.73;;
3207;SDS011;1616;52.394;9.756;2023-05-16T14:31:16;1.30;;;0.60;;
3207;SDS011;1616;52.394;9.756;2023-05-16T14:33:42;2.17;;;0.70;;
3207;SDS011;1616;52.394;9.756;2023-05-16T14:36:08;2.27;;;0.70;;
3207;SDS011;1616;52.394;9.756;2023-05-16T14:38:34;1.87;;;0.80;;
3207;SDS011;1616;52.394;9.756;2023-05-16T14:41:00;1.73;;;0.60;;
3207;SDS011;1616;52.394;9.756;2023-05-16T14:43:26;4.70;;;1.03;;
3207;SDS011;1616;52.394;9.756;2023-05-16T14:45:51;1.37;;;0.60;;
3207;SDS011;1616;52.394;9.756;2023-05-16T14:48:17;1.63;;;0.70;;
3207;SDS011;1616;52.394;9.756;2023-05-16T14:50:42;4.50;;;0.77;;
3207;SDS011;1616;52.394;9.756;2023-05-16T14:53:08;1.37;;;0.67;;
3207;SDS011;1616;52.394;9.756;2023-05-16T14:55:34;1.93;;;0.70;;
3207;SDS011;1616;52.394;9.756;2023-05-16T14:58:00;2.20;;;0.63;;
3207;SDS011;1616;52.394;9.756;2023-05-16T15:00:25;1.00;;;0.70;;
3207;SDS011;1616;52.394;9.756;2023-05-16T15:02:51;1.20;;;0.63;;
3207;SDS011;1616;52.394;9.756;2023-05-16T15:05:17;2.80;;;1.20;;
3207;SDS011;1616;52.394;9.756;2023-05-16T15:07:43;1.93;;;0.57;;
3207;SDS011;1616;52.394;9.756;2023-05-16T15:10:09;7.80;;;1.00;;
3207;SDS011;1616;52.394;9.756;2023-05-16T15:12:35;2.30;;;0.60;;
3207;SDS011;1616;52.394;9.756;2023-05-16T15:15:01;1.80;;;0.80;;
3207;SDS011;1616;52.394;9.756;2023-05-16T15:17:27;2.20;;;0.60;;
3207;SDS011;1616;52.394;9.756;2023-05-16T15:19:53;11.50;;;0.90;;
3207;SDS011;1616;52.394;9.756;2023-05-16T15:22:19;1.70;;;0.90;;
3207;SDS011;1616;52.394;9.756;2023-05-16T15:24:45;1.33;;;0.87;;
3207;SDS011;1616;52.394;9.756;2023-05-16T15:27:10;3.87;;;0.70;;
3207;SDS011;1616;52.394;9.756;2023-05-16T15:29:36;1.20;;;0.73;;
3207;SDS011;1616;52.394;9.756;2023-05-16T15:32:02;1.30;;;0.70;;
3207;SDS011;1616;52.394;9.756;2023-05-16T15:34:29;1.80;;;0.70;;
3207;SDS011;1616;52.394;9.756;2023-05-16T15:36:56;1.10;;;0.70;;